sensor_id;sensor_type;location;lat;lon;timestamp;temperature;humidity
12870;DHT22;6503;48.572;13.460;2022-10-31T00:15:20;11.10;99.90
12870;DHT22;6503;48.572;13.460;2022-10-31T00:18:58;11.00;99.90
12870;DHT22;6503;48.572;13.460;2022-10-31T00:22:16;11.00;99.90
12870;DHT22;6503;48.572;13.460;2022-10-31T00:27:59;10.80;99.90
12870;DHT22;6503;48.572;13.460;2022-10-31T00:31:14;10.90;99.90
12870;DHT22;6503;48.572;13.460;2022-10-31T00:34:51;10.80;99.90
12870;DHT22;6503;48.572;13.460;2022-10-31T00:37:41;10.80;99.90
12870;DHT22;6503;48.572;13.460;2022-10-31T00:41:07;10.80;99.90
12870;DHT22;6503;48.572;13.460;2022-10-31T00:51:06;10.80;99.90
12870;DHT22;6503;48.572;13.460;2022-10-31T00:54:24;10.80;99.90
12870;DHT22;6503;48.572;13.460;2022-10-31T00:57:23;10.80;99.90
12870;DHT22;6503;48.572;13.460;2022-10-31T01:13:42;10.60;99.90
12870;DHT22;6503;48.572;13.460;2022-10-31T01:16:37;10.60;99.90
12870;DHT22;6503;48.572;13.460;2022-10-31T01:19:49;10.60;99.90
12870;DHT22;6503;48.572;13.460;2022-10-31T01:32:31;10.60;99.90
12870;DHT22;6503;48.572;13.460;2022-10-31T01:35:18;10.60;99.90
12870;DHT22;6503;48.572;13.460;2022-10-31T01:58:14;10.50;99.90
12870;DHT22;6503;48.572;13.460;2022-10-31T02:00:43;10.40;99.90
12870;DHT22;6503;48.572;13.460;2022-10-31T02:03:12;10.30;99.90
12870;DHT22;6503;48.572;13.460;2022-10-31T02:05:39;10.30;99.90
12870;DHT22;6503;48.572;13.460;2022-10-31T02:08:13;10.20;99.90
12870;DHT22;6503;48.572;13.460;2022-10-31T02:10:43;10.20;99.90
12870;DHT22;6503;48.572;13.460;2022-10-31T02:13:12;10.20;99.90
12870;DHT22;6503;48.572;13.460;2022-10-31T02:15:40;10.20;99.90
12870;DHT22;6503;48.572;13.460;2022-10-31T02:18:07;10.10;99.90
12870;DHT22;6503;48.572;13.460;2022-10-31T02:20:42;10.10;99.90
12870;DHT22;6503;48.572;13.460;2022-10-31T02:26:43;10.20;99.90
12870;DHT22;6503;48.572;13.460;2022-10-31T02:29:31;10.20;99.90
12870;DHT22;6503;48.572;13.460;2022-10-31T02:32:13;10.20;99.90
12870;DHT22;6503;48.572;13.460;2022-10-31T02:34:47;10.20;99.90
12870;DHT22;6503;48.572;13.460;2022-10-31T02:37:25;10.20;99.90
12870;DHT22;6503;48.572;13.460;2022-10-31T02:39:56;10.20;99.90
12870;DHT22;6503;48.572;13.460;2022-10-31T02:42:31;10.20;99.90
12870;DHT22;6503;48.572;13.460;2022-10-31T02:45:05;10.20;99.90
12870;DHT22;6503;48.572;13.460;2022-10-31T02:47:37;10.10;99.90
12870;DHT22;6503;48.572;13.460;2022-10-31T02:50:08;9.90;99.90
12870;DHT22;6503;48.572;13.460;2022-10-31T02:52:37;10.00;99.90
12870;DHT22;6503;48.572;13.460;2022-10-31T02:55:39;10.00;99.90
12870;DHT22;6503;48.572;13.460;2022-10-31T02:58:00;9.80;99.90
12870;DHT22;6503;48.572;13.460;2022-10-31T03:00:32;9.50;99.90
12870;DHT22;6503;48.572;13.460;2022-10-31T03:03:08;9.50;99.90
12870;DHT22;6503;48.572;13.460;2022-10-31T03:05:49;9.60;99.90
12870;DHT22;6503;48.572;13.460;2022-10-31T03:08:24;9.70;99.90
12870;DHT22;6503;48.572;13.460;2022-10-31T03:10:56;9.80;99.90
12870;DHT22;6503;48.572;13.460;2022-10-31T03:13:33;9.80;99.90
12870;DHT22;6503;48.572;13.460;2022-10-31T03:16:08;9.80;99.90
12870;DHT22;6503;48.572;13.460;2022-10-31T03:18:40;9.90;99.90
12870;DHT22;6503;48.572;13.460;2022-10-31T03:21:10;9.90;99.90
12870;DHT22;6503;48.572;13.460;2022-10-31T03:23:39;9.90;99.90
12870;DHT22;6503;48.572;13.460;2022-10-31T03:26:08;10.00;99.90
12870;DHT22;6503;48.572;13.460;2022-10-31T03:28:40;10.00;99.90
12870;DHT22;6503;48.572;13.460;2022-10-31T03:31:12;9.90;99.90
12870;DHT22;6503;48.572;13.460;2022-10-31T03:33:42;9.70;99.90
12870;DHT22;6503;48.572;13.460;2022-10-31T03:36:11;9.70;99.90
12870;DHT22;6503;48.572;13.460;2022-10-31T03:38:41;9.80;99.90
12870;DHT22;6503;48.572;13.460;2022-10-31T03:41:13;9.80;99.90
12870;DHT22;6503;48.572;13.460;2022-10-31T03:43:45;9.90;99.90
12870;DHT22;6503;48.572;13.460;2022-10-31T03:46:13;9.70;99.90
12870;DHT22;6503;48.572;13.460;2022-10-31T03:48:44;9.40;99.90
12870;DHT22;6503;48.572;13.460;2022-10-31T03:51:15;9.40;99.90
12870;DHT22;6503;48.572;13.460;2022-10-31T03:53:47;9.50;99.90
12870;DHT22;6503;48.572;13.460;2022-10-31T03:56:22;9.50;99.90
12870;DHT22;6503;48.572;13.460;2022-10-31T03:58:58;9.60;99.90
12870;DHT22;6503;48.572;13.460;2022-10-31T04:01:29;9.60;99.90
12870;DHT22;6503;48.572;13.460;2022-10-31T04:04:00;9.70;99.90
12870;DHT22;6503;48.572;13.460;2022-10-31T04:06:28;9.70;99.90
12870;DHT22;6503;48.572;13.460;2022-10-31T04:08:58;9.80;99.90
12870;DHT22;6503;48.572;13.460;2022-10-31T04:11:29;9.80;99.90
12870;DHT22;6503;48.572;13.460;2022-10-31T04:13:59;9.70;99.90
12870;DHT22;6503;48.572;13.460;2022-10-31T04:16:27;9.70;99.90
12870;DHT22;6503;48.572;13.460;2022-10-31T04:18:55;9.70;99.90
12870;DHT22;6503;48.572;13.460;2022-10-31T04:21:29;9.60;99.90
12870;DHT22;6503;48.572;13.460;2022-10-31T04:23:56;9.60;99.90
12870;DHT22;6503;48.572;13.460;2022-10-31T04:26:24;9.70;99.90
12870;DHT22;6503;48.572;13.460;2022-10-31T04:28:51;9.70;99.90
12870;DHT22;6503;48.572;13.460;2022-10-31T04:31:18;9.70;99.90
12870;DHT22;6503;48.572;13.460;2022-10-31T04:33:47;9.70;99.90
12870;DHT22;6503;48.572;13.460;2022-10-31T04:36:14;9.70;99.90
12870;DHT22;6503;48.572;13.460;2022-10-31T04:38:43;9.70;99.90
12870;DHT22;6503;48.572;13.460;2022-10-31T04:41:11;9.70;99.90
12870;DHT22;6503;48.572;13.460;2022-10-31T04:43:38;9.50;99.90
12870;DHT22;6503;48.572;13.460;2022-10-31T04:46:05;9.60;99.90
12870;DHT22;6503;48.572;13.460;2022-10-31T04:48:32;9.60;99.90
12870;DHT22;6503;48.572;13.460;2022-10-31T04:51:00;9.50;99.90
12870;DHT22;6503;48.572;13.460;2022-10-31T04:53:27;9.50;99.90
12870;DHT22;6503;48.572;13.460;2022-10-31T04:55:57;9.50;99.90
12870;DHT22;6503;48.572;13.460;2022-10-31T04:58:24;9.50;99.90
12870;DHT22;6503;48.572;13.460;2022-10-31T05:00:52;9.50;99.90
12870;DHT22;6503;48.572;13.460;2022-10-31T05:03:19;9.40;99.90
12870;DHT22;6503;48.572;13.460;2022-10-31T05:05:46;9.20;99.90
12870;DHT22;6503;48.572;13.460;2022-10-31T05:08:15;9.10;99.90
12870;DHT22;6503;48.572;13.460;2022-10-31T05:10:42;9.00;99.90
12870;DHT22;6503;48.572;13.460;2022-10-31T05:13:10;9.10;99.90
12870;DHT22;6503;48.572;13.460;2022-10-31T05:15:37;9.20;99.90
12870;DHT22;6503;48.572;13.460;2022-10-31T05:18:05;9.20;99.90
12870;DHT22;6503;48.572;13.460;2022-10-31T05:20:32;9.10;99.90
12870;DHT22;6503;48.572;13.460;2022-10-31T05:23:00;9.10;99.90
12870;DHT22;6503;48.572;13.460;2022-10-31T05:25:28;9.20;99.90
12870;DHT22;6503;48.572;13.460;2022-10-31T05:27:56;9.20;99.90
12870;DHT22;6503;48.572;13.460;2022-10-31T05:30:26;9.30;99.90
12870;DHT22;6503;48.572;13.460;2022-10-31T05:32:54;9.30;99.90
12870;DHT22;6503;48.572;13.460;2022-10-31T05:35:22;9.30;99.90
12870;DHT22;6503;48.572;13.460;2022-10-31T05:37:50;9.40;99.90
12870;DHT22;6503;48.572;13.460;2022-10-31T05:40:18;9.30;99.90
12870;DHT22;6503;48.572;13.460;2022-10-31T05:42:47;9.30;99.90
12870;DHT22;6503;48.572;13.460;2022-10-31T05:45:17;9.40;99.90
12870;DHT22;6503;48.572;13.460;2022-10-31T05:47:51;9.40;99.90
12870;DHT22;6503;48.572;13.460;2022-10-31T05:50:19;9.20;99.90
12870;DHT22;6503;48.572;13.460;2022-10-31T05:52:46;9.00;99.90
12870;DHT22;6503;48.572;13.460;2022-10-31T05:55:13;9.00;99.90
12870;DHT22;6503;48.572;13.460;2022-10-31T05:57:41;9.10;99.90
12870;DHT22;6503;48.572;13.460;2022-10-31T06:00:10;9.10;99.90
12870;DHT22;6503;48.572;13.460;2022-10-31T06:02:37;9.20;99.90
12870;DHT22;6503;48.572;13.460;2022-10-31T06:05:07;9.10;99.90
12870;DHT22;6503;48.572;13.460;2022-10-31T06:07:35;9.10;99.90
12870;DHT22;6503;48.572;13.460;2022-10-31T06:10:04;9.10;99.90
12870;DHT22;6503;48.572;13.460;2022-10-31T06:12:32;9.10;99.90
12870;DHT22;6503;48.572;13.460;2022-10-31T06:15:03;9.20;99.90
12870;DHT22;6503;48.572;13.460;2022-10-31T06:17:31;9.30;99.90
12870;DHT22;6503;48.572;13.460;2022-10-31T06:20:02;9.20;99.90
12870;DHT22;6503;48.572;13.460;2022-10-31T06:22:32;9.20;99.90
12870;DHT22;6503;48.572;13.460;2022-10-31T06:25:00;9.20;99.90
12870;DHT22;6503;48.572;13.460;2022-10-31T06:27:29;9.20;99.90
12870;DHT22;6503;48.572;13.460;2022-10-31T06:29:57;9.10;99.90
12870;DHT22;6503;48.572;13.460;2022-10-31T06:32:24;8.80;99.90
12870;DHT22;6503;48.572;13.460;2022-10-31T06:34:52;8.70;99.90
12870;DHT22;6503;48.572;13.460;2022-10-31T06:37:19;8.80;99.90
12870;DHT22;6503;48.572;13.460;2022-10-31T06:39:48;8.90;99.90
12870;DHT22;6503;48.572;13.460;2022-10-31T06:42:15;9.00;99.90
12870;DHT22;6503;48.572;13.460;2022-10-31T06:44:43;9.10;99.90
12870;DHT22;6503;48.572;13.460;2022-10-31T06:47:11;9.20;99.90
12870;DHT22;6503;48.572;13.460;2022-10-31T06:49:38;9.20;99.90
12870;DHT22;6503;48.572;13.460;2022-10-31T06:52:07;9.30;99.90
12870;DHT22;6503;48.572;13.460;2022-10-31T06:54:34;9.20;99.90
12870;DHT22;6503;48.572;13.460;2022-10-31T06:57:03;9.30;99.90
12870;DHT22;6503;48.572;13.460;2022-10-31T06:59:30;9.30;99.90
12870;DHT22;6503;48.572;13.460;2022-10-31T07:01:57;9.30;99.90
12870;DHT22;6503;48.572;13.460;2022-10-31T07:04:25;9.30;99.90
12870;DHT22;6503;48.572;13.460;2022-10-31T07:06:52;9.40;99.90
12870;DHT22;6503;48.572;13.460;2022-10-31T07:09:19;9.40;99.90
12870;DHT22;6503;48.572;13.460;2022-10-31T07:11:47;9.30;99.90
12870;DHT22;6503;48.572;13.460;2022-10-31T07:14:16;9.10;99.90
12870;DHT22;6503;48.572;13.460;2022-10-31T07:16:43;9.10;99.90
12870;DHT22;6503;48.572;13.460;2022-10-31T07:19:12;9.00;99.90
12870;DHT22;6503;48.572;13.460;2022-10-31T07:21:39;9.10;99.90
12870;DHT22;6503;48.572;13.460;2022-10-31T07:24:08;9.20;99.90
12870;DHT22;6503;48.572;13.460;2022-10-31T07:26:35;9.20;99.90
12870;DHT22;6503;48.572;13.460;2022-10-31T07:29:02;9.30;99.90
12870;DHT22;6503;48.572;13.460;2022-10-31T07:31:32;9.40;99.90
12870;DHT22;6503;48.572;13.460;2022-10-31T07:33:59;9.50;99.90
12870;DHT22;6503;48.572;13.460;2022-10-31T07:36:26;9.50;99.90
12870;DHT22;6503;48.572;13.460;2022-10-31T07:38:53;9.50;99.90
12870;DHT22;6503;48.572;13.460;2022-10-31T07:41:23;9.40;99.90
12870;DHT22;6503;48.572;13.460;2022-10-31T07:43:50;9.50;99.90
12870;DHT22;6503;48.572;13.460;2022-10-31T07:46:17;9.50;99.90
12870;DHT22;6503;48.572;13.460;2022-10-31T07:48:46;9.60;99.90
12870;DHT22;6503;48.572;13.460;2022-10-31T07:51:13;9.70;99.90
12870;DHT22;6503;48.572;13.460;2022-10-31T07:53:41;9.80;99.90
12870;DHT22;6503;48.572;13.460;2022-10-31T07:56:08;9.90;99.90
12870;DHT22;6503;48.572;13.460;2022-10-31T07:58:35;10.00;99.90
12870;DHT22;6503;48.572;13.460;2022-10-31T08:01:04;10.00;99.90
12870;DHT22;6503;48.572;13.460;2022-10-31T08:03:31;10.00;99.90
12870;DHT22;6503;48.572;13.460;2022-10-31T08:06:01;9.90;99.90
12870;DHT22;6503;48.572;13.460;2022-10-31T08:08:28;9.90;99.90
12870;DHT22;6503;48.572;13.460;2022-10-31T08:10:55;10.00;99.90
12870;DHT22;6503;48.572;13.460;2022-10-31T08:13:22;10.10;99.90
12870;DHT22;6503;48.572;13.460;2022-10-31T08:15:49;10.00;99.90
12870;DHT22;6503;48.572;13.460;2022-10-31T08:18:17;10.10;99.90
12870;DHT22;6503;48.572;13.460;2022-10-31T08:20:44;10.20;99.90
12870;DHT22;6503;48.572;13.460;2022-10-31T08:23:13;10.20;99.90
12870;DHT22;6503;48.572;13.460;2022-10-31T08:25:42;10.20;99.90
12870;DHT22;6503;48.572;13.460;2022-10-31T08:28:10;10.30;99.90
12870;DHT22;6503;48.572;13.460;2022-10-31T08:30:38;10.20;99.90
12870;DHT22;6503;48.572;13.460;2022-10-31T08:33:07;10.10;99.90
12870;DHT22;6503;48.572;13.460;2022-10-31T08:35:35;10.10;99.90
12870;DHT22;6503;48.572;13.460;2022-10-31T08:38:03;10.20;99.90
12870;DHT22;6503;48.572;13.460;2022-10-31T08:40:32;10.40;99.90
12870;DHT22;6503;48.572;13.460;2022-10-31T08:43:01;10.40;99.90
12870;DHT22;6503;48.572;13.460;2022-10-31T08:45:31;10.50;99.90
12870;DHT22;6503;48.572;13.460;2022-10-31T08:48:00;10.60;99.90
12870;DHT22;6503;48.572;13.460;2022-10-31T08:50:29;10.60;99.90
12870;DHT22;6503;48.572;13.460;2022-10-31T08:53:00;10.60;99.90
12870;DHT22;6503;48.572;13.460;2022-10-31T08:55:28;10.60;99.90
12870;DHT22;6503;48.572;13.460;2022-10-31T08:57:58;10.60;99.90
12870;DHT22;6503;48.572;13.460;2022-10-31T09:00:25;10.70;99.90
12870;DHT22;6503;48.572;13.460;2022-10-31T09:03:01;10.70;99.90
12870;DHT22;6503;48.572;13.460;2022-10-31T09:05:29;10.80;99.90
12870;DHT22;6503;48.572;13.460;2022-10-31T09:07:56;10.70;99.90
12870;DHT22;6503;48.572;13.460;2022-10-31T09:10:28;10.80;99.90
12870;DHT22;6503;48.572;13.460;2022-10-31T09:12:57;11.00;99.90
12870;DHT22;6503;48.572;13.460;2022-10-31T09:15:26;11.30;99.90
12870;DHT22;6503;48.572;13.460;2022-10-31T09:17:53;11.30;99.90
12870;DHT22;6503;48.572;13.460;2022-10-31T09:20:20;11.40;99.90
12870;DHT22;6503;48.572;13.460;2022-10-31T09:22:48;11.60;99.90
12870;DHT22;6503;48.572;13.460;2022-10-31T09:25:21;11.70;99.90
12870;DHT22;6503;48.572;13.460;2022-10-31T09:27:51;11.70;99.90
12870;DHT22;6503;48.572;13.460;2022-10-31T09:30:23;11.80;99.90
12870;DHT22;6503;48.572;13.460;2022-10-31T09:32:57;11.80;99.90
12870;DHT22;6503;48.572;13.460;2022-10-31T09:35:25;11.90;99.90
12870;DHT22;6503;48.572;13.460;2022-10-31T09:37:55;12.10;99.90
12870;DHT22;6503;48.572;13.460;2022-10-31T09:40:31;12.20;99.90
12870;DHT22;6503;48.572;13.460;2022-10-31T09:43:05;12.40;99.90
12870;DHT22;6503;48.572;13.460;2022-10-31T09:45:44;12.60;99.90
12870;DHT22;6503;48.572;13.460;2022-10-31T09:51:06;12.90;99.90
12870;DHT22;6503;48.572;13.460;2022-10-31T09:53:37;13.00;99.90
12870;DHT22;6503;48.572;13.460;2022-10-31T09:56:07;13.20;99.90
12870;DHT22;6503;48.572;13.460;2022-10-31T09:58:40;13.30;99.90
12870;DHT22;6503;48.572;13.460;2022-10-31T10:01:21;13.40;99.90
12870;DHT22;6503;48.572;13.460;2022-10-31T10:03:54;13.60;99.90
12870;DHT22;6503;48.572;13.460;2022-10-31T10:06:27;13.80;99.90
12870;DHT22;6503;48.572;13.460;2022-10-31T10:08:56;14.00;99.90
12870;DHT22;6503;48.572;13.460;2022-10-31T10:11:44;14.10;99.90
12870;DHT22;6503;48.572;13.460;2022-10-31T10:14:24;14.30;99.90
12870;DHT22;6503;48.572;13.460;2022-10-31T10:17:14;14.40;99.90
12870;DHT22;6503;48.572;13.460;2022-10-31T10:20:07;14.60;99.90
12870;DHT22;6503;48.572;13.460;2022-10-31T10:22:45;14.80;99.90
12870;DHT22;6503;48.572;13.460;2022-10-31T10:25:20;14.90;99.90
12870;DHT22;6503;48.572;13.460;2022-10-31T10:27:58;15.10;99.90
12870;DHT22;6503;48.572;13.460;2022-10-31T10:30:34;15.40;99.90
12870;DHT22;6503;48.572;13.460;2022-10-31T10:33:08;15.60;99.90
12870;DHT22;6503;48.572;13.460;2022-10-31T10:35:40;15.80;99.90
12870;DHT22;6503;48.572;13.460;2022-10-31T10:38:27;16.00;99.90
12870;DHT22;6503;48.572;13.460;2022-10-31T10:40:58;16.10;99.90
12870;DHT22;6503;48.572;13.460;2022-10-31T10:43:32;16.20;99.90
12870;DHT22;6503;48.572;13.460;2022-10-31T10:46:13;16.30;99.90
12870;DHT22;6503;48.572;13.460;2022-10-31T10:49:08;16.40;99.90
12870;DHT22;6503;48.572;13.460;2022-10-31T10:51:46;16.60;99.90
12870;DHT22;6503;48.572;13.460;2022-10-31T10:54:33;16.70;99.90
12870;DHT22;6503;48.572;13.460;2022-10-31T10:57:20;17.00;99.90
12870;DHT22;6503;48.572;13.460;2022-10-31T10:59:49;17.10;99.90
12870;DHT22;6503;48.572;13.460;2022-10-31T11:02:18;17.10;99.90
12870;DHT22;6503;48.572;13.460;2022-10-31T11:05:08;17.20;99.90
12870;DHT22;6503;48.572;13.460;2022-10-31T11:07:41;17.20;99.90
12870;DHT22;6503;48.572;13.460;2022-10-31T11:10:14;17.30;99.90
12870;DHT22;6503;48.572;13.460;2022-10-31T11:13:04;17.40;99.90
12870;DHT22;6503;48.572;13.460;2022-10-31T11:15:51;17.60;99.90
12870;DHT22;6503;48.572;13.460;2022-10-31T11:18:25;17.80;99.90
12870;DHT22;6503;48.572;13.460;2022-10-31T11:21:02;17.90;99.90
12870;DHT22;6503;48.572;13.460;2022-10-31T11:23:33;18.10;99.90
12870;DHT22;6503;48.572;13.460;2022-10-31T11:26:03;18.30;99.90
12870;DHT22;6503;48.572;13.460;2022-10-31T11:28:55;18.40;99.90
12870;DHT22;6503;48.572;13.460;2022-10-31T11:34:47;18.70;99.90
12870;DHT22;6503;48.572;13.460;2022-10-31T11:41:04;19.00;99.90
12870;DHT22;6503;48.572;13.460;2022-10-31T11:43:34;19.10;99.90
12870;DHT22;6503;48.572;13.460;2022-10-31T11:47:17;19.30;99.90
12870;DHT22;6503;48.572;13.460;2022-10-31T11:49:46;19.40;99.90
12870;DHT22;6503;48.572;13.460;2022-10-31T11:52:16;19.50;99.90
12870;DHT22;6503;48.572;13.460;2022-10-31T11:54:48;19.70;99.90
12870;DHT22;6503;48.572;13.460;2022-10-31T11:57:24;19.80;99.90
12870;DHT22;6503;48.572;13.460;2022-10-31T11:59:53;19.90;99.90
12870;DHT22;6503;48.572;13.460;2022-10-31T12:02:25;20.00;99.90
12870;DHT22;6503;48.572;13.460;2022-10-31T12:05:02;20.20;99.90
12870;DHT22;6503;48.572;13.460;2022-10-31T12:07:31;20.30;99.90
12870;DHT22;6503;48.572;13.460;2022-10-31T12:09:59;20.40;99.90
12870;DHT22;6503;48.572;13.460;2022-10-31T12:12:47;20.50;99.90
12870;DHT22;6503;48.572;13.460;2022-10-31T12:15:29;20.60;99.90
12870;DHT22;6503;48.572;13.460;2022-10-31T12:18:24;20.80;99.90
12870;DHT22;6503;48.572;13.460;2022-10-31T12:21:02;20.90;99.90
12870;DHT22;6503;48.572;13.460;2022-10-31T12:23:42;21.00;99.90
12870;DHT22;6503;48.572;13.460;2022-10-31T12:26:19;21.10;99.90
12870;DHT22;6503;48.572;13.460;2022-10-31T12:29:05;21.20;99.90
12870;DHT22;6503;48.572;13.460;2022-10-31T12:31:47;21.30;99.90
12870;DHT22;6503;48.572;13.460;2022-10-31T12:37:19;21.50;99.90
12870;DHT22;6503;48.572;13.460;2022-10-31T12:39:57;21.70;99.90
12870;DHT22;6503;48.572;13.460;2022-10-31T12:42:40;21.80;99.90
12870;DHT22;6503;48.572;13.460;2022-10-31T12:45:34;21.90;99.90
12870;DHT22;6503;48.572;13.460;2022-10-31T12:48:15;22.00;99.90
12870;DHT22;6503;48.572;13.460;2022-10-31T12:50:55;22.20;99.90
12870;DHT22;6503;48.572;13.460;2022-10-31T12:53:38;22.30;99.90
12870;DHT22;6503;48.572;13.460;2022-10-31T12:56:18;22.30;99.90
12870;DHT22;6503;48.572;13.460;2022-10-31T12:58:54;22.40;99.90
12870;DHT22;6503;48.572;13.460;2022-10-31T13:01:26;22.50;99.90
12870;DHT22;6503;48.572;13.460;2022-10-31T13:04:01;22.40;99.90
12870;DHT22;6503;48.572;13.460;2022-10-31T13:06:33;22.50;99.90
12870;DHT22;6503;48.572;13.460;2022-10-31T13:09:06;22.50;99.90
12870;DHT22;6503;48.572;13.460;2022-10-31T13:11:37;22.50;99.90
12870;DHT22;6503;48.572;13.460;2022-10-31T13:14:10;22.40;99.90
12870;DHT22;6503;48.572;13.460;2022-10-31T13:16:41;22.40;99.90
12870;DHT22;6503;48.572;13.460;2022-10-31T13:19:25;22.20;99.90
12870;DHT22;6503;48.572;13.460;2022-10-31T13:21:58;21.90;99.90
12870;DHT22;6503;48.572;13.460;2022-10-31T13:24:33;21.60;99.90
12870;DHT22;6503;48.572;13.460;2022-10-31T13:27:09;21.30;99.90
12870;DHT22;6503;48.572;13.460;2022-10-31T13:29:42;21.10;99.90
12870;DHT22;6503;48.572;13.460;2022-10-31T13:32:11;21.00;99.90
12870;DHT22;6503;48.572;13.460;2022-10-31T13:34:45;20.90;99.90
12870;DHT22;6503;48.572;13.460;2022-10-31T13:37:18;20.70;99.90
12870;DHT22;6503;48.572;13.460;2022-10-31T13:40:02;20.50;99.90
12870;DHT22;6503;48.572;13.460;2022-10-31T13:42:43;20.50;99.90
12870;DHT22;6503;48.572;13.460;2022-10-31T13:45:13;20.40;99.90
12870;DHT22;6503;48.572;13.460;2022-10-31T13:47:42;20.40;99.90
12870;DHT22;6503;48.572;13.460;2022-10-31T13:50:24;20.30;99.90
12870;DHT22;6503;48.572;13.460;2022-10-31T13:52:50;20.20;99.90
12870;DHT22;6503;48.572;13.460;2022-10-31T13:55:39;20.20;99.90
12870;DHT22;6503;48.572;13.460;2022-10-31T13:58:23;20.10;99.90
12870;DHT22;6503;48.572;13.460;2022-10-31T14:01:11;20.00;99.90
12870;DHT22;6503;48.572;13.460;2022-10-31T14:03:42;20.00;99.90
12870;DHT22;6503;48.572;13.460;2022-10-31T14:06:11;19.90;99.90
12870;DHT22;6503;48.572;13.460;2022-10-31T14:08:41;19.90;99.90
12870;DHT22;6503;48.572;13.460;2022-10-31T14:11:22;19.90;99.90
12870;DHT22;6503;48.572;13.460;2022-10-31T14:13:52;19.80;99.90
12870;DHT22;6503;48.572;13.460;2022-10-31T14:16:22;19.70;99.90
12870;DHT22;6503;48.572;13.460;2022-10-31T14:18:56;19.70;99.90
12870;DHT22;6503;48.572;13.460;2022-10-31T14:21:29;19.60;99.90
12870;DHT22;6503;48.572;13.460;2022-10-31T14:23:58;19.50;99.90
12870;DHT22;6503;48.572;13.460;2022-10-31T14:26:50;19.40;99.90
12870;DHT22;6503;48.572;13.460;2022-10-31T14:29:26;19.30;99.90
12870;DHT22;6503;48.572;13.460;2022-10-31T14:31:56;19.20;99.90
12870;DHT22;6503;48.572;13.460;2022-10-31T14:34:26;19.10;99.90
12870;DHT22;6503;48.572;13.460;2022-10-31T14:40:14;19.10;99.90
12870;DHT22;6503;48.572;13.460;2022-10-31T14:45:53;18.90;99.90
12870;DHT22;6503;48.572;13.460;2022-10-31T14:48:34;18.90;99.90
12870;DHT22;6503;48.572;13.460;2022-10-31T14:51:10;18.80;99.90
12870;DHT22;6503;48.572;13.460;2022-10-31T14:53:45;18.70;99.90
12870;DHT22;6503;48.572;13.460;2022-10-31T14:56:19;18.50;99.90
12870;DHT22;6503;48.572;13.460;2022-10-31T14:58:47;18.50;99.90
12870;DHT22;6503;48.572;13.460;2022-10-31T15:01:23;18.40;99.90
12870;DHT22;6503;48.572;13.460;2022-10-31T15:03:51;18.30;99.90
12870;DHT22;6503;48.572;13.460;2022-10-31T15:06:21;18.20;99.90
12870;DHT22;6503;48.572;13.460;2022-10-31T15:08:51;18.10;99.90
12870;DHT22;6503;48.572;13.460;2022-10-31T15:11:26;18.00;99.90
12870;DHT22;6503;48.572;13.460;2022-10-31T15:13:55;17.90;99.90
12870;DHT22;6503;48.572;13.460;2022-10-31T15:16:25;17.70;99.90
12870;DHT22;6503;48.572;13.460;2022-10-31T15:18:56;17.40;99.90
12870;DHT22;6503;48.572;13.460;2022-10-31T15:21:29;17.20;99.90
12870;DHT22;6503;48.572;13.460;2022-10-31T15:23:58;17.00;99.90
12870;DHT22;6503;48.572;13.460;2022-10-31T15:26:32;16.90;99.90
12870;DHT22;6503;48.572;13.460;2022-10-31T15:29:02;16.80;99.90
12870;DHT22;6503;48.572;13.460;2022-10-31T15:31:36;16.70;99.90
12870;DHT22;6503;48.572;13.460;2022-10-31T15:34:11;16.60;99.90
12870;DHT22;6503;48.572;13.460;2022-10-31T15:36:41;16.50;99.90
12870;DHT22;6503;48.572;13.460;2022-10-31T15:39:10;16.40;99.90
12870;DHT22;6503;48.572;13.460;2022-10-31T15:41:47;16.30;99.90
12870;DHT22;6503;48.572;13.460;2022-10-31T15:44:19;16.20;99.90
12870;DHT22;6503;48.572;13.460;2022-10-31T15:46:55;16.20;99.90
12870;DHT22;6503;48.572;13.460;2022-10-31T15:49:39;16.20;99.90
12870;DHT22;6503;48.572;13.460;2022-10-31T15:52:29;16.10;99.90
12870;DHT22;6503;48.572;13.460;2022-10-31T15:55:00;16.00;99.90
12870;DHT22;6503;48.572;13.460;2022-10-31T15:57:28;15.90;99.90
12870;DHT22;6503;48.572;13.460;2022-10-31T15:59:57;15.80;99.90
12870;DHT22;6503;48.572;13.460;2022-10-31T16:02:27;15.80;99.90
12870;DHT22;6503;48.572;13.460;2022-10-31T16:04:55;15.70;99.90
12870;DHT22;6503;48.572;13.460;2022-10-31T16:07:24;15.70;99.90
12870;DHT22;6503;48.572;13.460;2022-10-31T16:09:55;15.60;99.90
12870;DHT22;6503;48.572;13.460;2022-10-31T16:12:28;15.50;99.90
12870;DHT22;6503;48.572;13.460;2022-10-31T16:14:56;15.40;99.90
12870;DHT22;6503;48.572;13.460;2022-10-31T16:17:26;15.30;99.90
12870;DHT22;6503;48.572;13.460;2022-10-31T16:19:56;15.20;99.90
12870;DHT22;6503;48.572;13.460;2022-10-31T16:22:28;15.10;99.90
12870;DHT22;6503;48.572;13.460;2022-10-31T16:25:01;15.10;99.90
12870;DHT22;6503;48.572;13.460;2022-10-31T16:27:33;15.10;99.90
12870;DHT22;6503;48.572;13.460;2022-10-31T16:30:03;15.00;99.90
12870;DHT22;6503;48.572;13.460;2022-10-31T16:32:55;15.00;99.90
12870;DHT22;6503;48.572;13.460;2022-10-31T16:35:25;14.90;99.90
12870;DHT22;6503;48.572;13.460;2022-10-31T16:37:53;14.90;99.90
12870;DHT22;6503;48.572;13.460;2022-10-31T16:40:21;14.80;99.90
12870;DHT22;6503;48.572;13.460;2022-10-31T16:42:48;14.80;99.90
12870;DHT22;6503;48.572;13.460;2022-10-31T16:45:18;14.80;99.90
12870;DHT22;6503;48.572;13.460;2022-10-31T16:47:45;14.80;99.90
12870;DHT22;6503;48.572;13.460;2022-10-31T16:50:20;14.80;99.90
12870;DHT22;6503;48.572;13.460;2022-10-31T16:52:50;14.70;99.90
12870;DHT22;6503;48.572;13.460;2022-10-31T16:55:19;14.60;99.90
12870;DHT22;6503;48.572;13.460;2022-10-31T16:57:50;14.60;99.90
12870;DHT22;6503;48.572;13.460;2022-10-31T17:00:21;14.60;99.90
12870;DHT22;6503;48.572;13.460;2022-10-31T17:02:49;14.60;99.90
12870;DHT22;6503;48.572;13.460;2022-10-31T17:05:21;14.60;99.90
12870;DHT22;6503;48.572;13.460;2022-10-31T17:07:54;14.60;99.90
12870;DHT22;6503;48.572;13.460;2022-10-31T17:10:23;14.60;99.90
12870;DHT22;6503;48.572;13.460;2022-10-31T17:12:53;14.50;99.90
12870;DHT22;6503;48.572;13.460;2022-10-31T17:15:24;14.50;99.90
12870;DHT22;6503;48.572;13.460;2022-10-31T17:17:53;14.50;99.90
12870;DHT22;6503;48.572;13.460;2022-10-31T17:20:22;14.50;99.90
12870;DHT22;6503;48.572;13.460;2022-10-31T17:22:50;14.40;99.90
12870;DHT22;6503;48.572;13.460;2022-10-31T17:25:18;14.30;99.90
12870;DHT22;6503;48.572;13.460;2022-10-31T17:27:47;14.30;99.90
12870;DHT22;6503;48.572;13.460;2022-10-31T17:30:18;14.20;99.90
12870;DHT22;6503;48.572;13.460;2022-10-31T17:32:47;14.20;99.90
12870;DHT22;6503;48.572;13.460;2022-10-31T17:35:15;14.10;99.90
12870;DHT22;6503;48.572;13.460;2022-10-31T17:37:45;14.10;99.90
12870;DHT22;6503;48.572;13.460;2022-10-31T17:40:14;14.10;99.90
12870;DHT22;6503;48.572;13.460;2022-10-31T17:42:41;14.20;99.90
12870;DHT22;6503;48.572;13.460;2022-10-31T17:45:09;14.10;99.90